Latest Weather Observations for Devonport Airport

IDT60801

Issued at 8:21 am EST Wednesday 22 September 2021 (issued every 10 minutes, with the page automatically refreshed every 10 minutes)

About weather observations | Map of weather stations | Latest weather observations for TAS | Other Formats
Station Details ID: 091126 Name: DEVONPORT AIRPORT Lat: -41.17 Lon: 146.43 Height: 8.0 m
Data from the previous 72 hours. | See also: Recent months at Devonport Airport
Date/Time
EST
Temp
°C
App
Temp
°C
Dew
Point
°C
Rel
Hum
%
Delta-T
°C
Wind Press
QNH
hPa
Press
MSL
hPa
Rain since
9am
mm
Dir  Spd
km/h
Gust
km/h
Spd
kts
Gust
kts
22/08:00am 12.1 6.6 9.1 82 1.5 WNW 28 33 15 18 1019.8 1019.8 0.0
22/07:30am 11.5 5.9 8.9 84 1.3 WNW 28 32 15 17 1020.0 1020.0 0.0
22/07:00am 10.8 5.5 8.6 86 1.1 WNW 26 32 14 17 1019.9 1019.9 0.0
22/06:30am 10.4 5.5 8.3 87 1.0 WNW 24 30 13 16 1019.8 1019.8 0.0
22/06:00am 10.4 5.1 8.5 88 0.9 WNW 26 33 14 18 1019.5 1019.5 0.0
22/05:30am 10.5 6.6 9.3 92 0.6 WNW 20 26 11 14 1019.3 1019.3 0.0
22/05:00am 10.4 5.2 8.7 89 0.8 W 26 32 14 17 1019.0 1019.0 0.0
22/04:30am 10.9 5.4 9.2 89 0.8 WNW 28 37 15 20 1018.9 1018.9 0.0
22/04:00am 11.2 5.4 9.3 88 0.9 WNW 30 35 16 19 1018.9 1018.9 0.0
22/03:30am 11.3 6.0 9.7 90 0.8 WNW 28 35 15 19 1018.9 1018.9 0.0
22/03:00am 11.1 4.9 9.2 88 0.9 NW 32 39 17 21 1019.1 1019.1 0.0
22/02:30am 11.1 5.2 9.2 88 0.9 WNW 30 41 16 22 1019.3 1019.3 0.0
22/02:00am 11.0 4.6 8.6 85 1.2 WNW 32 39 17 21 1019.6 1019.6 0.0
22/01:30am 10.5 6.0 8.4 87 1.0 W 22 32 12 17 1020.1 1020.1 0.0
22/01:00am 10.8 5.8 8.2 84 1.3 WNW 24 30 13 16 1020.4 1020.4 0.0
22/12:30am 10.8 5.4 8.0 83 1.4 NW 26 32 14 17 1020.8 1020.8 0.0
22/12:00am 10.9 5.1 7.8 81 1.5 WNW 28 32 15 17 1020.7 1020.7 0.0
 
Date/Time
EST
Temp
°C
App
Temp
°C
Dew
Point
°C
Rel
Hum
%
Delta-T
°C
Wind Press
QNH
hPa
Press
MSL
hPa
Rain since
9am
mm
Dir  Spd
km/h
Gust
km/h
Spd
kts
Gust
kts
21/11:30pm 11.0 5.3 8.2 83 1.4 WNW 28 35 15 19 1020.5 1020.5 0.0
21/11:00pm 11.1 4.5 7.6 79 1.7 WNW 32 39 17 21 1020.7 1020.7 0.0
21/10:30pm 10.7 6.8 7.2 79 1.7 WSW 17 28 9 15 1020.9 1020.9 0.0
21/10:00pm 11.2 6.5 6.1 71 2.4 W 20 26 11 14 1020.6 1020.6 0.0
21/09:30pm 11.1 7.8 6.3 72 2.2 W 13 19 7 10 1020.9 1020.9 0.0
21/09:00pm 11.6 6.3 6.7 72 2.3 WNW 24 32 13 17 1020.5 1020.5 0.0
21/08:30pm 11.5 6.4 7.8 78 1.8 WNW 24 30 13 16 1020.4 1020.4 0.0
21/08:00pm 11.5 5.4 8.4 81 1.5 WNW 30 37 16 20 1020.2 1020.2 0.0
21/07:30pm 11.6 5.2 8.6 82 1.5 WNW 32 39 17 21 1020.0 1020.0 0.0
21/07:00pm 11.4 5.0 8.6 83 1.4 WNW 32 39 17 21 1020.0 1020.0 0.0
21/06:30pm 11.2 4.1 8.2 82 1.5 WNW 35 43 19 23 1020.1 1020.1 0.0
21/06:00pm 11.4 4.7 8.3 81 1.5 NW 33 39 18 21 1019.9 1019.9 0.0
21/05:30pm 12.0 6.9 7.5 74 2.2 NW 24 30 13 16 1019.9 1019.9 0.0
21/05:00pm 12.1 8.0 6.2 67 2.8 WNW 17 28 9 15 1019.8 1019.8 0.0
21/04:30pm 13.0 6.9 4.9 58 3.7 W 26 35 14 19 1019.6 1019.6 0.0
21/04:00pm 13.7 6.8 4.8 55 4.1 W 30 35 16 19 1019.4 1019.4 0.0
21/03:30pm 13.7 6.3 4.0 52 4.4 WSW 32 41 17 22 1019.5 1019.5 0.0
21/03:00pm 13.8 6.7 3.6 50 4.6 WSW 30 37 16 20 1019.1 1019.1 0.0
21/02:30pm 12.7 8.2 4.2 56 3.9 W 17 28 9 15 1019.3 1019.3 0.0
21/02:00pm 12.7 7.7 4.4 57 3.8 WNW 20 30 11 16 1019.8 1019.8 0.0
21/01:30pm 12.5 8.2 3.2 53 4.1 W 15 24 8 13 1019.9 1019.9 0.0
21/01:00pm 11.4 6.2 2.4 54 3.9 W 19 24 10 13 1020.3 1020.3 0.0
21/12:30pm 10.6 4.0 1.9 55 3.7 WSW 26 32 14 17 1020.5 1020.5 0.0
21/12:00pm 10.2 4.6 1.3 54 3.7 WSW 20 28 11 15 1020.6 1020.6 0.0
21/11:30am 9.9 4.0 1.5 56 3.5 WSW 22 30 12 16 1020.7 1020.7 0.0
21/11:00am 10.2 3.5 1.3 54 3.7 WSW 26 32 14 17 1020.4 1020.4 0.0
21/10:30am 10.3 4.8 0.6 51 4.0 SW 19 24 10 13 1019.9 1019.9 0.0
21/10:00am 10.7 6.0 0.7 50 4.1 SW 15 24 8 13 1019.7 1019.7 0.0
21/09:30am 11.1 4.6 0.5 48 4.4 SW 24 39 13 21 1019.6 1019.6 0.0
21/09:00am 10.1 4.6 0.4 51 3.9 W 19 26 10 14 1019.6 1019.6 0.0
21/08:30am 9.6 4.0 1.3 56 3.4 W 20 26 11 14 1019.6 1019.6 0.0
21/08:00am 8.6 2.4 2.2 64 2.7 WNW 24 28 13 15 1019.2 1019.2 0.0
21/07:30am 7.7 1.8 1.5 65 2.5 WSW 22 26 12 14 1018.7 1018.7 0.0
21/07:00am 5.8 0.4 1.5 74 1.7 WSW 19 20 10 11 1017.4 1017.5 0.0
21/06:30am 5.1 -0.6 0.7 73 1.7 WSW 20 24 11 13 1017.2 1017.3 0.0
21/06:00am 1.8 -3.2 -1.1 81 1.0 WSW 15 17 8 9 1016.9 1017.0 0.0
21/05:30am 2.9 -2.3 0.0 81 1.1 WSW 17 19 9 10 1016.5 1016.6 0.0
21/05:00am 3.2 -3.0 -0.1 79 1.2 WSW 22 24 12 13 1016.4 1016.5 0.0
21/04:30am 4.2 0.2 0.2 75 1.5 WSW 11 13 6 7 1015.8 1015.9 0.0
21/04:00am 3.1 -1.7 0.2 81 1.1 WSW 15 17 8 9 1015.2 1015.3 0.0
21/03:30am 3.6 -1.2 0.3 79 1.2 WSW 15 19 8 10 1014.6 1014.7 0.0
21/03:00am 5.1 -0.6 0.7 73 1.7 W 20 24 11 13 1014.1 1014.2 0.0
21/02:30am 5.3 -0.4 0.5 71 1.9 WSW 20 24 11 13 1014.1 1014.2 0.0
21/02:00am 5.8 0.1 0.8 70 2.0 SW 20 26 11 14 1013.8 1013.9 0.0
21/01:30am 6.4 1.3 0.9 68 2.2 SW 17 20 9 11 1013.6 1013.7 0.0
21/01:00am 6.2 1.5 0.9 69 2.1 SW 15 17 8 9 1013.1 1013.2 0.0
21/12:30am 6.2 1.9 1.1 70 2.0 SW 13 17 7 9 1012.8 1012.9 0.0
21/12:00am 6.6 2.3 1.3 69 2.1 SW 13 20 7 11 1012.1 1012.2 0.0
 
Date/Time
EST
Temp
°C
App
Temp
°C
Dew
Point
°C
Rel
Hum
%
Delta-T
°C
Wind Press
QNH
hPa
Press
MSL
hPa
Rain since
9am
mm
Dir  Spd
km/h
Gust
km/h
Spd
kts
Gust
kts
20/11:30pm 5.7 0.7 1.6 75 1.6 SW 17 24 9 13 1011.4 1011.5 0.0
20/11:00pm 6.0 1.4 1.5 73 1.8 SW 15 20 8 11 1011.2 1011.3 0.0
20/10:30pm 5.4 1.1 1.3 75 1.6 SW 13 19 7 10 1010.6 1010.7 0.0
20/10:00pm 6.6 2.0 1.7 71 2.0 SW 15 20 8 11 1010.0 1010.1 0.0
20/09:30pm 5.5 1.3 1.6 76 1.6 WSW 13 15 7 8 1009.4 1009.5 0.0
20/09:00pm 4.6 0.3 0.9 77 1.4 WSW 13 20 7 11 1009.0 1009.0 0.0
20/08:30pm 6.0 2.6 1.7 74 1.7 W 9 11 5 6 1008.4 1008.4 0.0
20/08:00pm 6.7 2.2 2.4 74 1.8 W 15 19 8 10 1008.1 1008.1 0.0
20/07:30pm 7.0 2.5 1.9 70 2.1 W 15 19 8 10 1007.5 1007.5 0.0
20/07:00pm 7.8 1.2 1.9 66 2.4 WSW 26 32 14 17 1006.8 1006.8 0.0
20/06:30pm 7.8 2.5 1.9 66 2.4 W 19 24 10 13 1006.5 1006.5 0.0
20/06:00pm 8.3 2.4 1.7 63 2.7 W 22 30 12 16 1006.2 1006.2 0.0
20/05:30pm 9.3 1.3 1.7 59 3.2 W 33 43 18 23 1005.4 1005.4 0.0
20/05:00pm 10.4 2.5 1.2 53 3.8 WSW 32 44 17 24 1004.9 1004.9 0.0
20/04:30pm 11.2 5.0 2.2 54 3.8 W 24 32 13 17 1004.3 1004.3 0.0
20/04:00pm 11.1 3.1 1.9 53 3.9 W 33 44 18 24 1004.1 1004.1 0.0
20/03:30pm 10.9 2.6 2.0 54 3.8 W 35 44 19 24 1004.1 1004.1 0.0
20/03:00pm 11.5 2.4 2.0 52 4.1 WSW 39 54 21 29 1003.9 1003.9 0.0
20/02:52pm 11.3 3.5 1.5 51 4.1 WSW 32 54 17 29 1003.8 1003.8 0.0
20/02:30pm 12.6 4.5 1.3 46 4.8 W 33 43 18 23 1003.5 1003.5 0.0
20/02:25pm 12.4 4.0 1.4 47 4.7 W 35 48 19 26 1003.4 1003.4 0.0
20/02:07pm 12.1 3.6 0.8 46 4.7 WSW 35 48 19 26 1003.4 1003.4 0.0
20/02:00pm 12.0 3.8 0.5 45 4.8 W 33 43 18 23 1003.3 1003.3 0.0
20/01:30pm 11.0 1.8 1.5 52 4.0 W 39 52 21 28 1003.3 1003.3 0.0
20/01:00pm 12.0 2.1 3.0 54 4.0 W 44 56 24 30 1003.0 1003.0 0.0
20/12:30pm 11.4 1.9 1.9 52 4.0 W 41 59 22 32 1003.1 1003.1 0.0
20/12:00pm 11.7 2.7 2.5 53 4.0 WSW 39 59 21 32 1003.0 1003.0 0.0
20/11:30am 11.3 3.4 4.5 63 3.1 W 35 48 19 26 1003.3 1003.3 0.0
20/11:00am 11.1 3.9 5.0 66 2.8 WNW 32 43 17 23 1002.9 1002.9 0.0
20/10:30am 9.8 0.9 3.1 63 2.9 W 39 50 21 27 1002.6 1002.6 0.0
20/10:00am 10.9 3.9 3.9 62 3.1 W 30 41 16 22 1002.8 1002.8 0.0
20/09:30am 10.7 4.4 5.5 70 2.4 WNW 28 37 15 20 1002.5 1002.5 0.0
20/09:00am 10.3 3.1 4.9 69 2.4 W 32 41 17 22 1002.3 1002.3 4.8
20/08:30am 9.6 1.7 4.2 69 2.4 WNW 35 43 19 23 1001.8 1001.8 4.8
20/08:00am 9.3 1.9 4.9 74 2.0 WNW 33 39 18 21 1001.4 1001.4 4.8
20/07:30am 8.9 1.8 5.3 78 1.6 W 32 39 17 21 1001.2 1001.2 4.8
20/07:00am 9.0 1.3 5.4 78 1.6 WNW 35 44 19 24 1001.1 1001.1 4.8
20/06:30am 8.7 1.0 5.3 79 1.5 WNW 35 44 19 24 1000.6 1000.6 4.8
20/06:00am 8.6 0.8 5.0 78 1.6 WNW 35 46 19 25 1000.3 1000.3 4.8
20/05:30am 8.2 -1.6 5.5 83 1.2 WNW 46 67 25 36 1000.4 1000.4 4.8
20/05:24am 8.8 -1.0 5.4 79 1.5 WNW 46 67 25 36 1000.6 1000.6 4.6
20/05:00am 8.7 1.0 5.3 79 1.5 WNW 35 44 19 24 1000.4 1000.4 4.6
20/04:35am 8.4 1.2 5.2 80 1.4 W 32 43 17 23 1000.5 1000.5 4.6
20/04:30am 8.4 2.0 5.2 80 1.4 W 28 39 15 21 1000.6 1000.6 4.6
20/04:15am 7.8 3.1 5.3 84 1.1 W 19 28 10 15 1001.1 1001.1 4.6
20/04:00am 7.7 1.6 4.8 82 1.3 W 26 35 14 19 1001.0 1001.0 4.6
20/03:30am 9.2 3.3 5.8 79 1.6 W 26 35 14 19 1000.9 1000.9 4.0
20/03:00am 9.4 3.6 6.1 80 1.5 WNW 26 37 14 20 1001.1 1001.1 4.0
20/02:30am 8.9 2.2 5.5 79 1.5 W 30 39 16 21 1001.8 1001.8 4.0
20/02:00am 9.2 2.7 6.6 84 1.2 W 30 43 16 23 1002.2 1002.2 3.8
20/01:30am 9.8 2.7 6.3 79 1.6 WNW 33 41 18 22 1002.3 1002.3 3.8
20/01:14am 9.7 3.6 6.6 81 1.4 WNW 28 48 15 26 1002.8 1002.8 3.8
20/01:00am 9.7 3.8 5.7 76 1.8 W 26 35 14 19 1003.0 1003.0 3.8
20/12:30am 10.0 3.0 6.0 76 1.8 WNW 32 39 17 21 1003.2 1003.2 3.8
20/12:00am 10.1 2.9 6.1 76 1.9 WNW 33 43 18 23 1003.5 1003.5 3.8
 
Date/Time
EST
Temp
°C
App
Temp
°C
Dew
Point
°C
Rel
Hum
%
Delta-T
°C
Wind Press
QNH
hPa
Press
MSL
hPa
Rain since
9am
mm
Dir  Spd
km/h
Gust
km/h
Spd
kts
Gust
kts
19/11:30pm 9.8 4.2 7.1 83 1.3 WNW 26 33 14 18 1003.8 1003.8 3.8
19/11:00pm 10.0 3.1 6.3 78 1.7 WNW 32 41 17 22 1004.1 1004.1 3.8
19/10:30pm 10.0 2.5 6.5 79 1.6 WNW 35 46 19 25 1004.2 1004.2 3.8
19/10:00pm 10.2 3.3 7.3 82 1.4 WNW 33 43 18 23 1004.3 1004.3 3.8
19/09:30pm 10.1 4.2 7.7 85 1.2 WNW 28 37 15 20 1004.5 1004.5 3.8
19/09:00pm 10.7 4.6 6.5 75 2.0 WNW 28 33 15 18 1004.4 1004.4 3.6
19/08:30pm 10.5 4.7 6.1 74 2.0 WNW 26 32 14 17 1004.7 1004.7 3.6
19/08:00pm 10.7 5.3 6.5 75 2.0 WNW 24 33 13 18 1005.0 1005.0 3.6
19/07:30pm 10.9 4.3 5.9 71 2.3 W 30 39 16 21 1005.1 1005.1 3.6
19/07:00pm 11.9 4.0 6.0 67 2.8 WNW 37 46 20 25 1004.6 1004.6 3.6
19/06:30pm 12.1 5.2 6.4 68 2.7 WNW 32 43 17 23 1004.1 1004.1 3.6
19/06:00pm 12.3 3.0 5.2 62 3.3 WNW 43 56 23 30 1003.8 1003.8 3.6
19/05:31pm 12.5 4.3 5.0 60 3.5 W 37 56 20 30 1004.0 1004.0 3.6
19/05:30pm 12.4 3.9 5.1 61 3.4 W 39 56 21 30 1004.0 1004.0 3.6
19/05:00pm 13.3 4.4 7.5 68 2.8 WNW 44 57 24 31 1003.4 1003.4 3.6
19/04:30pm 13.3 5.6 8.6 73 2.4 WNW 39 48 21 26 1003.1 1003.1 3.6
19/04:05pm 13.5 6.0 9.4 76 2.1 WNW 39 46 21 25 1003.0 1003.0 3.6
19/04:00pm 13.4 5.7 10.2 81 1.7 WNW 41 50 22 27 1003.0 1003.0 3.6
19/03:41pm 12.7 4.4 11.3 91 0.7 NW 46 59 25 32 1002.9 1002.9 3.6
19/03:30pm 12.9 4.9 11.1 89 0.9 NW 44 54 24 29 1002.8 1002.8 3.6
19/03:00pm 13.5 4.2 10.5 82 1.6 NW 50 61 27 33 1002.9 1002.9 3.4
19/02:58pm 13.3 4.0 10.5 83 1.5 NW 50 61 27 33 1002.9 1002.9 3.4
19/02:42pm 12.5 4.5 11.2 92 0.7 NW 44 56 24 30 1003.3 1003.3 3.4
19/02:38pm 12.3 3.6 11.4 94 0.5 NW 48 67 26 36 1003.4 1003.4 3.4
19/02:30pm 12.0 1.7 11.1 94 0.5 NW 56 72 30 39 1003.5 1003.5 3.0
19/02:25pm 12.1 2.0 10.5 90 0.8 NW 54 72 29 39 1003.3 1003.3 2.4
19/02:24pm 12.1 2.0 10.5 90 0.8 NW 54 72 29 39 1003.2 1003.2 2.4
19/02:18pm 12.2 1.9 10.9 92 0.7 NW 56 69 30 37 1003.1 1003.1 2.2
19/02:06pm 12.4 3.3 11.1 92 0.7 NNW 50 69 27 37 1003.2 1003.2 1.6
19/02:04pm 12.5 3.4 11.1 91 0.7 NNW 50 69 27 37 1003.1 1003.1 1.6
19/02:00pm 12.6 3.1 11.0 90 0.8 NW 52 65 28 35 1003.2 1003.2 1.6
19/01:44pm 13.2 4.5 11.4 89 1.0 NW 48 67 26 36 1003.2 1003.2 1.6
19/01:30pm 13.0 4.8 11.6 91 0.7 NW 46 65 25 35 1003.8 1003.8 1.6
19/01:22pm 12.6 4.5 10.8 89 0.9 NW 44 65 24 35 1003.9 1003.9 1.6
19/01:16pm 12.9 5.4 10.8 87 1.1 NW 41 54 22 29 1004.3 1004.3 1.4
19/01:09pm 13.2 5.8 11.1 87 1.1 NW 41 54 22 29 1004.5 1004.5 1.4
19/01:00pm 13.4 6.7 11.1 86 1.2 NW 37 48 20 26 1004.8 1004.8 1.4
19/12:46pm 13.3 4.6 9.9 80 1.7 WNW 46 56 25 30 1004.8 1004.8 1.4
19/12:30pm 13.2 4.9 11.4 89 1.0 NW 46 59 25 32 1004.9 1004.9 1.4
19/12:00pm 13.1 2.2 10.8 86 1.2 NW 59 78 32 42 1004.4 1004.4 0.4
19/11:30am 12.4 1.5 10.8 90 0.8 NW 59 83 32 45 1004.9 1004.9 0.4
19/11:00am 12.3 1.0 10.7 90 0.8 NW 61 83 33 45 1004.8 1004.8 0.2
19/10:37am 12.2 2.2 10.6 90 0.8 NW 54 74 29 40 1005.6 1005.6 0.0
19/10:30am 12.3 0.9 10.4 88 1.0 NW 61 74 33 40 1005.5 1005.5 0.0
19/10:00am 12.4 1.3 10.1 86 1.2 NW 59 82 32 44 1005.9 1005.9 0.0
19/09:52am 12.7 1.6 10.1 84 1.3 NW 59 78 32 42 1005.7 1005.7 0.0
19/09:51am 12.7 1.2 10.1 84 1.3 NW 61 78 33 42 1005.6 1005.6 0.0
19/09:32am 12.5 1.7 10.0 85 1.3 NW 57 76 31 41 1005.9 1005.9 0.0
19/09:30am 12.5 1.8 10.4 87 1.1 NW 57 72 31 39 1006.0 1006.0 0.0
19/09:00am 12.1 1.6 10.2 88 1.0 NW 56 74 30 40 1006.5 1006.5 1.8
19/08:30am 11.8 1.5 9.7 87 1.1 NW 54 76 29 41 1006.9 1006.9 1.8

Other formats

Comma delimited format used in spreadsheet applications
http://www.bom.gov.au/fwo/IDT60801/IDT60801.95960.axf

JavaScript Object Notation format (JSON) in row-major order
http://www.bom.gov.au/fwo/IDT60801/IDT60801.95960.json

Data quality

Most of these data are generated automatically and are frequently updated. Quality checks on data are not normally performed. It is possible for incorrect values to appear. Refer to information at About Latest Weather Observations and please check the disclaimer before using these data.